Castres-Mazamet Airport

LFCK · Tarn, Occitanie, 法国

罗盘
风向 的 风向 330° Castres-Mazamet Airport 14/32
风: 2 kt, 1 beaufort

2 kt

改变
0 1.000 2.000 3.000 4.000 5.000
OVC 800 ft
METAR LFCK 012230Z AUTO 33002KT 9999 OVC008 04/03 Q1020

METAR Castres-Mazamet Airport - LFCK/DCM

Castres-Mazamet Airport是,法国中的中型机场。 该机场有一条跑道: 14/32. 该领域的国际民航组织标志是LFCK 它的国际航空运输协会代码是DCM.

这份报告是针对2022年12月1日 23:30, 当地时间在Castres-Mazamet Airport进行的。

机场观察

风向为330°,速度为2 kt。

可见度为10 km 或者更多。

有乌云密布在800 ft的高度。 破损或更高的上限为800 ft。

温度为4 °C,阵风为2 °C。 露点为3 °C,相对湿度为93%。 海平面上的气压为1020 hPa (QNH)。

白天

今天,太阳从08:04升起,在17:15降落。 这适用于Castres-Mazamet Airport,世界夏令时可能有所不同。 当地时间与世界标准时间之间的时差为+1 小时。 当前,没有夏令时有效。

公司介绍

在这个机场,你可以找到飞行俱乐部。 本场上唯一已知的公司是Aéroclub de Castres Mazamet。

体会

到Vliegles.nl去找飞行课程,跳伞和其他飞行体验。 浏览页面,了解Castres-Mazamet Airport附近所有可用的活动。 你也可以使用搜索功能来寻找你所在地附近的特定飞行课程、跳伞或其他飞行体验。

跑道

Id 标题 侧风 逆风 侧风 %
14/32 141°-321° 2 kt 16 %

逆风成分最大的方向会被突出显示,并用于横风计算。 这并不一定意味着这个方向在使用。

乌云

800 ft OVC 乌云密布

温度 & 天气

温度 4 °C
露点 3 °C
相对湿度 93%
风寒 2 °C
Kp-index 4 (0-9)

白天

日出
08:04 (8:28)
中午
12:39
日落
17:15

小工具

你想在你的网站上有一个关于Castres-Mazamet Airport的当前航空天气(METAR)的小部件吗?

显示HTML代码

我们和第三方通过cookies跟踪您在我们网站上的互联网行为。如果你继续,我们认为你同意我们的饼干政策